Rochdale, MA

11:53 PM EST on December 21, 2014 (GMT -0500)
North Central State | Change Station
CLOSE
Current Station
Airport
Location: Pawtucket,
Elevation: 440 ft
Nearby Weather Stations

Elev 440 ft 41.92 °N, 71.49 °W | Updated 18 minutes ago

Overcast
Overcast
30 °F
Feels Like 23 °F
N
8
Wind Variable Wind from NNE

Today
High -- | Low -- °F
--% Chance of Precip.
Yesterday
High -- | Low -- °F
Precip. -- in
7:12 AM 4:18 PM
New Moon, 0% visible
Pressure 30.33 in
Visibility 10.0 miles
Clouds Overcast 4800 ft
Windchill 23 °F
Dew Point 23 °F
Humidity 75%
Rainfall 0.01 in
Snow Depth Not available.
UV 0 out of 12
Pollen .10 out of 12
Air Quality Not available.
Flu Activity Not available.
METAR KSFZ 220435Z 02007KT 10SM OVC048 M01/M05 A3033 RMK AO1

More Conditions Fewer Conditions

Pressure 30.33 in
Visibility 10.0 miles
Clouds Overcast 4800 ft
Windchill 23 °F
Dew Point 23 °F
Humidity 75%
Rainfall 0.01 in
Snow Depth Not available.
UV 0 out of 12
Pollen .10 out of 12
Air Quality Not available.
Flu Activity Not available.
METAR KSFZ 220435Z 02007KT 10SM OVC048 M01/M05 A3033 RMK AO1

More Conditions Fewer Conditions

10-Day Weather Forecast

Almanac

Astronomy

Dec. 21, 2014 Rise Set
Actual Time
Civil Twilight
Nautical Twilight
Astronomical Twilight
Moon
Length of Visible Light
Length of Day
Tomorrow will be .
, % of the Moon is Illuminated

Today's Extremes

State Highs State Lows

Community

WunderPhotos

Upload Photos

1,779,540 photos uploaded!

WunderBlogs® & News

Nearby

Air Quality

  Air Quality AQ Index Pollutant
Not available.

Snow Depth

Station Depth Elevation

Earthquake Activity

City Distance Mag. Time & Date
Minimum magnitude displayed is 2.5.

Coastal Water Temperatures

Place Temperature

Nearby Weather Stations